createdAt,value
2022-10-02T00:02:28.223Z,1.37
2022-10-02T00:05:43.583Z,0.70
2022-10-02T00:08:46.053Z,0.97
2022-10-02T00:11:50.998Z,0.57
2022-10-02T00:15:00.167Z,0.57
2022-10-02T00:18:19.344Z,0.77
2022-10-02T00:21:21.178Z,0.83
2022-10-02T00:24:27.803Z,0.60
2022-10-02T00:27:54.798Z,0.93
2022-10-02T00:31:45.100Z,0.87
2022-10-02T00:35:17.583Z,0.80
2022-10-02T00:38:40.187Z,1.10
2022-10-02T00:42:14.439Z,3.50
2022-10-02T00:45:22.466Z,1.07
2022-10-02T00:48:49.809Z,1.10
2022-10-02T00:52:05.022Z,1.40
2022-10-02T00:55:41.893Z,1.63
2022-10-02T00:58:59.169Z,1.00
2022-10-02T01:02:10.170Z,0.80
2022-10-02T01:05:12.222Z,1.10
2022-10-02T01:08:14.592Z,1.10
2022-10-02T01:11:16.914Z,1.57
2022-10-02T01:14:19.063Z,1.03
2022-10-02T01:17:26.798Z,0.90
2022-10-02T01:20:47.847Z,1.00
2022-10-02T01:23:57.088Z,0.87
2022-10-02T01:26:59.028Z,1.00
2022-10-02T01:30:16.418Z,1.10
2022-10-02T01:33:18.892Z,0.80
2022-10-02T01:36:21.780Z,1.10
2022-10-02T01:39:24.000Z,0.73
2022-10-02T01:42:26.119Z,0.87
2022-10-02T01:45:54.882Z,1.63
2022-10-02T01:49:03.585Z,0.80
2022-10-02T01:52:21.323Z,1.00
2022-10-02T01:55:39.630Z,1.30
2022-10-02T01:58:44.128Z,1.20
2022-10-02T02:02:33.953Z,1.23
2022-10-02T02:05:53.954Z,1.30
2022-10-02T02:09:07.958Z,0.90
2022-10-02T02:12:16.723Z,1.10
2022-10-02T02:15:41.721Z,0.90
2022-10-02T02:18:48.535Z,1.33
2022-10-02T02:22:02.555Z,1.50
2022-10-02T02:25:09.095Z,1.10
2022-10-02T02:28:15.186Z,1.30
2022-10-02T02:31:21.198Z,0.93
2022-10-02T02:34:29.418Z,1.53
2022-10-02T02:37:34.342Z,0.77
2022-10-02T02:40:40.098Z,0.77
2022-10-02T02:43:49.340Z,0.90
2022-10-02T02:47:11.672Z,1.00
2022-10-02T02:50:33.782Z,1.00
2022-10-02T02:53:39.182Z,0.90
2022-10-02T02:56:42.550Z,1.07
2022-10-02T02:59:47.205Z,1.17
2022-10-02T03:02:50.795Z,1.10
2022-10-02T03:06:12.243Z,1.00
2022-10-02T03:09:16.924Z,1.10
2022-10-02T03:12:35.187Z,0.90
2022-10-02T03:16:13.180Z,0.97
2022-10-02T03:19:40.349Z,1.23
2022-10-02T03:23:11.526Z,0.63
2022-10-02T03:26:14.580Z,0.90
2022-10-02T03:29:29.106Z,1.40
2022-10-02T03:32:31.820Z,1.93
2022-10-02T03:35:34.103Z,1.00
2022-10-02T03:38:36.151Z,1.13
2022-10-02T03:41:39.003Z,1.13
2022-10-02T03:44:41.172Z,1.53
2022-10-02T03:47:42.977Z,1.50
2022-10-02T03:50:45.663Z,1.50
2022-10-02T03:53:47.554Z,0.93
2022-10-02T03:56:57.927Z,1.20
2022-10-02T04:00:10.445Z,1.80
2022-10-02T04:03:17.796Z,1.40
2022-10-02T04:06:24.300Z,1.00
2022-10-02T04:09:32.474Z,1.13
2022-10-02T04:12:41.193Z,0.80
2022-10-02T04:16:10.625Z,0.90
2022-10-02T04:19:22.780Z,0.90
2022-10-02T04:22:35.351Z,1.03
2022-10-02T04:25:43.415Z,1.00
2022-10-02T04:28:53.736Z,1.13
2022-10-02T04:32:07.556Z,1.00
2022-10-02T04:35:32.591Z,1.10
2022-10-02T04:38:47.462Z,1.10
2022-10-02T04:41:58.401Z,1.43
2022-10-02T04:45:31.054Z,1.27
2022-10-02T04:48:51.828Z,1.30
2022-10-02T04:52:32.236Z,1.37
2022-10-02T04:55:38.726Z,1.80
2022-10-02T04:58:52.801Z,1.43
2022-10-02T05:02:33.272Z,1.50
2022-10-02T05:05:59.593Z,2.37
2022-10-02T05:09:13.180Z,2.27
2022-10-02T05:12:30.092Z,1.47
2022-10-02T05:15:41.469Z,1.13
2022-10-02T05:19:02.050Z,1.17
2022-10-02T05:22:15.139Z,1.97
2022-10-02T05:25:41.701Z,1.80
2022-10-02T05:29:07.910Z,2.57
2022-10-02T05:32:33.163Z,1.80
2022-10-02T05:36:09.254Z,1.40
2022-10-02T05:39:28.016Z,1.63
2022-10-02T05:42:32.168Z,1.97
2022-10-02T05:45:59.010Z,1.63
2022-10-02T05:49:14.761Z,1.93
2022-10-02T05:52:44.707Z,1.93
2022-10-02T05:55:51.001Z,1.70
2022-10-02T05:59:14.713Z,1.80
2022-10-02T06:02:24.619Z,2.13
2022-10-02T06:05:41.789Z,1.70
2022-10-02T06:08:48.780Z,1.23
2022-10-02T06:12:07.806Z,1.50
2022-10-02T06:15:44.778Z,4.17
2022-10-02T06:18:51.806Z,2.07
2022-10-02T06:22:01.850Z,2.23
2022-10-02T06:25:18.331Z,3.13
2022-10-02T06:28:25.919Z,2.67
2022-10-02T06:31:57.001Z,2.20
2022-10-02T06:34:59.006Z,1.93
2022-10-02T06:38:29.963Z,1.87
2022-10-02T06:41:47.750Z,1.33
2022-10-02T06:45:06.463Z,1.17
2022-10-02T06:48:25.208Z,2.07
2022-10-02T06:51:52.151Z,2.13
2022-10-02T06:55:14.390Z,0.90
2022-10-02T06:58:32.714Z,1.40
2022-10-02T07:01:48.135Z,1.30
2022-10-02T07:05:14.502Z,1.40
2022-10-02T07:08:42.097Z,1.00
2022-10-02T07:11:59.365Z,1.20
2022-10-02T07:15:43.265Z,1.47
2022-10-02T07:19:24.788Z,0.90
2022-10-02T07:22:57.490Z,1.23
2022-10-02T07:26:11.592Z,1.17
2022-10-02T07:29:47.450Z,0.90
2022-10-02T07:33:08.426Z,2.73
2022-10-02T07:36:14.816Z,2.40
2022-10-02T07:39:57.546Z,2.13
2022-10-02T07:43:24.471Z,2.90
2022-10-02T07:46:42.506Z,1.73
2022-10-02T07:49:55.593Z,1.53
2022-10-02T07:53:00.596Z,0.90
2022-10-02T07:56:02.663Z,1.00
2022-10-02T07:59:09.785Z,1.23
2022-10-02T08:02:47.299Z,1.27
2022-10-02T08:05:51.910Z,1.00
2022-10-02T08:09:15.064Z,1.40
2022-10-02T08:12:38.335Z,1.00
2022-10-02T08:15:42.826Z,0.80
2022-10-02T08:18:50.877Z,1.23
2022-10-02T08:22:10.411Z,1.20
2022-10-02T08:25:27.446Z,1.83
2022-10-02T08:29:01.793Z,2.20
2022-10-02T08:32:10.126Z,1.70
2022-10-02T08:35:14.451Z,2.00
2022-10-02T08:38:36.957Z,1.93
2022-10-02T08:41:48.121Z,1.40
2022-10-02T08:45:02.626Z,1.43
2022-10-02T08:48:29.401Z,2.17
2022-10-02T08:51:52.299Z,1.97
2022-10-02T08:55:32.630Z,1.30
2022-10-02T08:58:40.125Z,1.37
2022-10-02T09:02:11.482Z,1.10
2022-10-02T09:05:32.631Z,1.10
2022-10-02T09:09:15.941Z,1.00
2022-10-02T09:12:40.767Z,1.70
2022-10-02T09:16:11.708Z,1.57
2022-10-02T09:19:42.309Z,1.10
2022-10-02T09:23:25.690Z,1.20
2022-10-02T09:27:15.452Z,1.50
2022-10-02T09:30:27.301Z,2.93
2022-10-02T09:33:53.445Z,2.80
2022-10-02T09:37:24.996Z,1.77
2022-10-02T09:40:47.232Z,1.80
2022-10-02T09:44:10.471Z,1.70
2022-10-02T09:47:38.133Z,2.10
2022-10-02T09:51:14.070Z,0.80
2022-10-02T09:54:38.846Z,1.17
2022-10-02T09:58:12.640Z,1.47
2022-10-02T10:01:49.361Z,0.97
2022-10-02T10:05:11.572Z,0.80
2022-10-02T10:08:30.063Z,0.83
2022-10-02T10:11:42.801Z,1.30
2022-10-02T10:15:09.015Z,2.33
2022-10-02T10:18:26.861Z,4.00
2022-10-02T10:21:47.374Z,1.70
2022-10-02T10:24:55.031Z,3.87
2022-10-02T10:28:18.557Z,2.40
2022-10-02T10:31:38.548Z,2.03
2022-10-02T10:34:46.683Z,2.23
2022-10-02T10:38:14.879Z,2.40
2022-10-02T10:41:44.072Z,1.83
2022-10-02T10:45:07.031Z,2.40
2022-10-02T10:48:38.187Z,1.50
2022-10-02T10:52:21.514Z,1.67
2022-10-02T10:55:48.005Z,0.90
2022-10-02T10:59:05.176Z,1.00
2022-10-02T11:02:22.554Z,1.10
2022-10-02T11:06:14.886Z,1.17
2022-10-02T11:09:34.004Z,2.00
2022-10-02T11:12:54.613Z,1.70
2022-10-02T11:16:36.181Z,1.20
2022-10-02T11:19:41.477Z,1.10
2022-10-02T11:23:02.765Z,1.37
2022-10-02T11:26:27.585Z,1.20
2022-10-02T11:30:08.270Z,1.07
2022-10-02T11:33:32.256Z,1.13
2022-10-02T11:36:52.838Z,1.00
2022-10-02T11:40:16.928Z,1.43
2022-10-02T11:43:44.195Z,1.43
2022-10-02T11:46:52.476Z,1.20
2022-10-02T11:50:02.562Z,1.40
2022-10-02T11:53:19.877Z,0.90
2022-10-02T11:56:38.348Z,2.60
2022-10-02T11:59:49.661Z,0.60
2022-10-02T12:02:53.822Z,0.50
2022-10-02T12:06:31.442Z,0.60
2022-10-02T12:09:47.654Z,0.80
2022-10-02T12:13:17.780Z,0.50
2022-10-02T12:16:25.534Z,0.50
2022-10-02T12:20:26.551Z,0.80
2022-10-02T12:24:09.470Z,0.87
2022-10-02T12:27:46.565Z,0.87
2022-10-02T12:31:11.707Z,0.70
2022-10-02T12:34:38.697Z,0.47
2022-10-02T12:37:52.476Z,0.60
2022-10-02T12:41:25.523Z,0.80
2022-10-02T12:44:59.155Z,0.93
2022-10-02T12:48:46.156Z,1.40
2022-10-02T12:52:13.536Z,1.00
2022-10-02T12:55:37.244Z,1.03
2022-10-02T12:58:39.080Z,1.00
2022-10-02T13:01:48.199Z,1.30
2022-10-02T13:05:27.075Z,1.30
2022-10-02T13:09:05.370Z,1.10
2022-10-02T13:12:19.636Z,0.70
2022-10-02T13:15:34.010Z,1.60
2022-10-02T13:19:00.195Z,0.50
2022-10-02T13:22:25.286Z,0.53
2022-10-02T13:25:45.634Z,0.57
2022-10-02T13:28:53.515Z,0.50
2022-10-02T13:32:19.101Z,0.50
2022-10-02T13:35:45.997Z,0.90
2022-10-02T13:38:58.607Z,0.80
2022-10-02T13:42:19.332Z,0.60
2022-10-02T13:45:40.209Z,0.50
2022-10-02T13:49:14.532Z,0.30
2022-10-02T13:52:50.629Z,0.40
2022-10-02T13:56:05.742Z,0.40
2022-10-02T13:59:16.535Z,1.00
2022-10-02T14:02:53.291Z,0.60
2022-10-02T14:06:25.877Z,0.77
2022-10-02T14:09:27.691Z,0.90
2022-10-02T14:12:58.316Z,0.70
2022-10-02T14:16:23.662Z,0.50
2022-10-02T14:19:43.936Z,0.60
2022-10-02T14:23:12.275Z,0.50
2022-10-02T14:26:47.821Z,0.80
2022-10-02T14:30:04.317Z,0.47
2022-10-02T14:33:39.200Z,0.67
2022-10-02T14:37:17.802Z,0.50
2022-10-02T14:40:21.434Z,0.50
2022-10-02T14:43:48.710Z,0.50
2022-10-02T14:47:03.971Z,0.40
2022-10-02T14:50:12.005Z,0.60
2022-10-02T14:58:18.721Z,0.20
2022-10-02T15:01:26.649Z,0.30
2022-10-02T15:04:31.300Z,0.70
2022-10-02T15:07:35.237Z,0.30
2022-10-02T15:10:38.887Z,0.37
2022-10-02T15:13:49.054Z,0.50
2022-10-02T15:17:22.836Z,0.20
2022-10-02T15:24:56.485Z,0.30
2022-10-02T15:28:35.657Z,0.50
2022-10-02T15:36:22.348Z,0.60
2022-10-02T15:39:36.264Z,1.50
2022-10-02T15:42:49.739Z,1.30
2022-10-02T15:50:39.812Z,1.17
2022-10-02T15:54:17.032Z,0.60
2022-10-02T15:57:31.370Z,0.90
2022-10-02T16:01:01.120Z,0.57
2022-10-02T16:04:25.332Z,0.50
2022-10-02T16:08:06.276Z,0.20
2022-10-02T16:11:33.613Z,0.20
2022-10-02T16:14:36.381Z,0.70
2022-10-02T16:17:56.396Z,0.67
2022-10-02T16:21:10.490Z,0.43
2022-10-02T16:24:12.300Z,0.80
2022-10-02T16:27:48.352Z,1.03
2022-10-02T16:30:51.050Z,0.77
2022-10-02T16:38:28.629Z,0.80
2022-10-02T16:41:41.605Z,0.60
2022-10-02T16:44:46.379Z,0.90
2022-10-02T16:47:56.745Z,0.70
2022-10-02T16:51:36.791Z,1.00
2022-10-02T16:55:06.273Z,1.47
2022-10-02T16:58:40.977Z,2.00
2022-10-02T17:02:21.841Z,1.30
2022-10-02T17:05:28.827Z,0.77
2022-10-02T17:08:54.177Z,1.00
2022-10-02T17:11:58.805Z,1.30
2022-10-02T17:15:34.029Z,1.17
2022-10-02T17:18:40.763Z,1.03
2022-10-02T17:22:18.406Z,1.90
2022-10-02T17:25:44.611Z,2.10
2022-10-02T17:28:51.372Z,2.10
2022-10-02T17:31:56.225Z,3.33
2022-10-02T17:35:00.194Z,3.10
2022-10-02T17:38:08.874Z,3.87
2022-10-02T17:41:15.013Z,4.47
2022-10-02T17:44:22.808Z,5.43
2022-10-02T17:47:35.024Z,4.23
2022-10-02T17:50:55.292Z,3.53
2022-10-02T17:54:35.511Z,2.37
2022-10-02T17:57:47.076Z,2.40
2022-10-02T18:00:55.139Z,1.20
2022-10-02T18:04:08.475Z,0.80
2022-10-02T18:07:48.522Z,0.80
2022-10-02T18:11:05.517Z,0.40
2022-10-02T18:14:48.465Z,1.17
2022-10-02T18:18:23.958Z,1.70
2022-10-02T18:21:33.422Z,1.90
2022-10-02T18:24:57.024Z,2.40
2022-10-02T18:28:20.551Z,4.00
2022-10-02T18:31:54.605Z,3.77
2022-10-02T18:34:56.481Z,3.63
2022-10-02T18:38:04.436Z,3.50
2022-10-02T18:41:44.097Z,3.33
2022-10-02T18:44:54.983Z,3.77
2022-10-02T18:48:19.837Z,4.00
2022-10-02T18:51:53.661Z,5.30
2022-10-02T18:55:04.697Z,4.77
2022-10-02T18:58:12.587Z,4.50
2022-10-02T19:01:39.284Z,3.67
2022-10-02T19:04:55.742Z,3.53
2022-10-02T19:08:03.821Z,3.37
2022-10-02T19:11:17.566Z,2.70
2022-10-02T19:14:33.748Z,1.80
2022-10-02T19:17:36.411Z,1.47
2022-10-02T19:20:53.900Z,1.43
2022-10-02T19:24:03.382Z,1.33
2022-10-02T19:27:08.607Z,1.33
2022-10-02T19:30:26.472Z,1.90
2022-10-02T19:33:42.457Z,1.83
2022-10-02T19:36:50.847Z,1.40
2022-10-02T19:39:55.817Z,1.43
2022-10-02T19:43:04.408Z,1.40
2022-10-02T19:46:09.149Z,1.10
2022-10-02T19:49:39.571Z,1.30
2022-10-02T19:53:07.551Z,1.30
2022-10-02T19:56:18.401Z,1.00
2022-10-02T19:59:25.806Z,0.70
2022-10-02T20:02:32.725Z,0.60
2022-10-02T20:05:36.748Z,0.73
2022-10-02T20:09:23.042Z,0.70
2022-10-02T20:12:30.857Z,0.70
2022-10-02T20:16:34.920Z,1.27
2022-10-02T20:19:52.973Z,1.00
2022-10-02T20:22:56.910Z,1.27
2022-10-02T20:26:01.006Z,0.70
2022-10-02T20:29:07.427Z,0.53
2022-10-02T20:32:26.157Z,1.57
2022-10-02T20:35:35.023Z,1.30
2022-10-02T20:38:42.542Z,2.10
2022-10-02T20:41:57.112Z,3.83
2022-10-02T20:44:59.626Z,2.57
2022-10-02T20:48:16.753Z,2.43
2022-10-02T20:51:52.775Z,1.70
2022-10-02T20:55:14.364Z,1.60
2022-10-02T20:58:39.118Z,0.53
2022-10-02T21:02:14.803Z,0.43
2022-10-02T21:05:39.277Z,0.70
2022-10-02T21:08:57.276Z,0.90
2022-10-02T21:12:02.230Z,1.60
2022-10-02T21:15:12.780Z,1.20
2022-10-02T21:18:48.242Z,0.83
2022-10-02T21:21:58.792Z,1.10
2022-10-02T21:25:18.742Z,1.10
2022-10-02T21:28:41.328Z,0.80
2022-10-02T21:31:52.984Z,0.90
2022-10-02T21:35:16.739Z,0.70
2022-10-02T21:38:28.565Z,0.80
2022-10-02T21:41:55.273Z,0.77
2022-10-02T21:45:49.632Z,1.03
2022-10-02T21:49:05.004Z,1.27
2022-10-02T21:52:31.782Z,0.90
2022-10-02T21:56:13.868Z,0.60
2022-10-02T21:59:24.967Z,0.67
2022-10-02T22:02:50.048Z,0.73
2022-10-02T22:06:20.346Z,0.60
2022-10-02T22:09:28.304Z,0.80
2022-10-02T22:12:48.816Z,0.50
2022-10-02T22:16:10.901Z,0.60
2022-10-02T22:19:35.181Z,0.63
2022-10-02T22:22:47.452Z,1.00
2022-10-02T22:26:01.622Z,1.23
2022-10-02T22:29:26.136Z,1.00
2022-10-02T22:33:07.137Z,0.93
2022-10-02T22:36:08.926Z,0.87
2022-10-02T22:39:21.057Z,0.63
2022-10-02T22:42:28.072Z,0.70
2022-10-02T22:45:40.082Z,0.50
2022-10-02T22:49:09.252Z,0.60
2022-10-02T22:52:34.907Z,0.60
2022-10-02T22:55:45.157Z,0.60
2022-10-02T22:59:06.866Z,0.40
2022-10-02T23:02:14.942Z,0.67
2022-10-02T23:05:26.188Z,0.83
2022-10-02T23:08:39.337Z,0.50
2022-10-02T23:11:45.536Z,0.70
2022-10-02T23:14:50.603Z,0.50
2022-10-02T23:18:00.145Z,0.50
2022-10-02T23:21:10.086Z,0.40
2022-10-02T23:24:12.152Z,0.53
2022-10-02T23:27:22.652Z,0.33
2022-10-02T23:30:25.012Z,0.50
2022-10-02T23:33:43.357Z,0.30
2022-10-02T23:36:55.337Z,0.80
2022-10-02T23:40:05.794Z,1.23
2022-10-02T23:43:12.073Z,1.30
2022-10-02T23:46:18.781Z,0.93
2022-10-02T23:49:35.736Z,0.90
2022-10-02T23:52:41.359Z,0.80
2022-10-02T23:56:01.686Z,0.70
2022-10-02T23:59:13.024Z,0.73
